Cleveland, Ohio
Traffic Map
Current Weather Conditions
Cleveland, Ohio
Clear
Clear
59°
Feels Like: 59°
Wind Chill: 59° Ceiling: Unl
Heat Index: 59° Visibility: 10mi
Dew Point: 51° Wind: 15mph
Humidity: 75% Direction: 40° (NE)
Pressure: 30.08in Gusts: 0mph
Raw Report DataKBKL 212053Z 04013KT 10SM CLR 15/11 A3008 RMK AO2 SLP187 T01500106 58028
Traffic Incident Summary
Active as of:
Severity:
Category:
InformationThere was an issue retrieving the traffic information for this location. Please try a different location or try again shortly.
Advertisements